Time;durP1;ratioP1;P1;durP2;ratioP2;P2;SDS_P1;SDS_P2;PMS_P1;PMS_P2;Temp;Humidity;BMP_temperature;BMP_pressure;BME280_temperature;BME280_humidity;BME280_pressure;Samples;Min_cycle;Max_cycle;Signal;HPM_P1;HPM_P2
2021/12/25 00:00:56;;;;;;;12.93;10.17;;;3.20;99.10;;;;;;6251441;28;20485;-63
2021/12/25 00:04:00;;;;;;;13.30;10.80;;;3.20;99.10;;;;;;6251132;28;20506;-64
2021/12/25 00:07:04;;;;;;;13.83;10.50;;;3.20;98.90;;;;;;6251044;28;20470;-63
2021/12/25 00:10:08;;;;;;;13.40;10.90;;;3.20;98.90;;;;;;6250276;28;20474;-63
2021/12/25 00:13:13;;;;;;;14.70;10.93;;;3.20;98.80;;;;;;6251072;28;20475;-63
2021/12/25 00:16:16;;;;;;;15.50;10.53;;;3.20;98.70;;;;;;6251587;28;20470;-63
2021/12/25 00:19:20;;;;;;;12.53;9.80;;;3.10;98.80;;;;;;6251015;28;20790;-64
2021/12/25 00:22:23;;;;;;;14.53;10.83;;;3.10;98.90;;;;;;6250728;28;20529;-63
2021/12/25 00:25:26;;;;;;;13.07;10.13;;;3.20;98.90;;;;;;6250810;28;20819;-63
2021/12/25 00:31:55;;;;;;;13.47;11.00;;;3.10;98.90;;;;;;6248647;28;20827;-63
2021/12/25 00:34:58;;;;;;;15.80;10.87;;;3.10;98.90;;;;;;6250771;28;21029;-63
2021/12/25 00:38:01;;;;;;;16.27;10.97;;;3.10;98.90;;;;;;6250392;28;20479;-65
2021/12/25 00:41:04;;;;;;;13.67;9.70;;;3.10;98.90;;;;;;6250400;28;20479;-64
2021/12/25 00:44:09;;;;;;;12.90;9.37;;;3.10;99.00;;;;;;6250118;28;20491;-64
2021/12/25 00:47:12;;;;;;;11.13;9.93;;;3.10;99.00;;;;;;6250588;28;20905;-64
2021/12/25 00:50:16;;;;;;;12.47;10.00;;;3.10;99.10;;;;;;6249891;28;20467;-63
2021/12/25 00:53:19;;;;;;;10.67;8.10;;;3.10;99.10;;;;;;6250165;28;20558;-63
2021/12/25 00:56:22;;;;;;;11.87;9.40;;;3.00;99.30;;;;;;6249626;28;20474;-64
2021/12/25 00:59:26;;;;;;;12.07;8.50;;;2.90;99.60;;;;;;6250204;28;20471;-63
2021/12/25 01:02:29;;;;;;;10.50;7.50;;;2.90;99.60;;;;;;6250444;28;20474;-63
2021/12/25 01:05:33;;;;;;;11.07;8.43;;;3.00;99.60;;;;;;6250406;28;20455;-63
2021/12/25 01:08:36;;;;;;;13.40;8.73;;;3.00;99.50;;;;;;6250071;28;20450;-63
2021/12/25 01:11:41;;;;;;;9.77;8.37;;;3.00;99.50;;;;;;6249942;28;20887;-63
2021/12/25 01:14:51;;;;;;;9.00;8.07;;;3.00;99.50;;;;;;6250151;28;20455;-63
2021/12/25 01:18:27;;;;;;;9.13;8.03;;;3.00;99.50;;;;;;6250460;28;20467;-63
2021/12/25 01:22:01;;;;;;;10.60;9.40;;;3.00;99.50;;;;;;6249950;28;20493;-63
2021/12/25 01:25:29;;;;;;;11.57;10.40;;;3.00;99.40;;;;;;6249943;28;20487;-63
2021/12/25 01:32:14;;;;;;;9.57;8.50;;;2.90;99.30;;;;;;6249722;28;20471;-63
2021/12/25 01:38:48;;;;;;;10.20;8.50;;;2.90;99.30;;;;;;6249985;28;20478;-63
2021/12/25 01:48:37;;;;;;;10.30;7.70;;;2.80;99.30;;;;;;6254360;28;20529;-63
2021/12/25 01:51:41;;;;;;;10.73;9.20;;;2.80;99.30;;;;;;6254490;28;20478;-63
2021/12/25 01:54:44;;;;;;;10.90;7.33;;;2.80;99.40;;;;;;6253852;28;20483;-63
2021/12/25 01:57:47;;;;;;;9.53;7.80;;;2.80;99.40;;;;;;6254417;28;20478;-63
2021/12/25 02:00:54;;;;;;;10.07;8.90;;;2.70;99.40;;;;;;6253979;28;20490;-63
2021/12/25 02:03:59;;;;;;;9.07;8.17;;;2.70;99.50;;;;;;6253907;28;20485;-63
2021/12/25 02:07:02;;;;;;;9.17;7.33;;;2.70;99.60;;;;;;6253996;28;20943;-63
2021/12/25 02:10:07;;;;;;;11.00;7.43;;;2.60;99.70;;;;;;6253944;28;20466;-63
2021/12/25 02:13:12;;;;;;;7.73;6.93;;;2.60;99.80;;;;;;6254075;28;20490;-63
2021/12/25 02:16:18;;;;;;;8.80;7.30;;;2.60;99.90;;;;;;6253697;28;20986;-63
2021/12/25 02:19:34;;;;;;;10.00;6.63;;;2.60;99.90;;;;;;6253431;28;20475;-63
2021/12/25 02:22:39;;;;;;;7.70;6.90;;;2.60;99.90;;;;;;6253958;28;20478;-63
2021/12/25 02:25:43;;;;;;;9.90;7.43;;;2.60;99.90;;;;;;6253440;28;20479;-63
2021/12/25 02:28:47;;;;;;;7.80;6.27;;;2.50;99.90;;;;;;6253281;28;20785;-63
2021/12/25 02:31:50;;;;;;;7.63;6.40;;;2.50;99.90;;;;;;6253122;28;20470;-63
2021/12/25 02:34:53;;;;;;;6.93;6.07;;;2.50;99.90;;;;;;6252939;28;20471;-63
2021/12/25 02:37:58;;;;;;;8.47;5.80;;;2.60;99.90;;;;;;6253382;28;20471;-63
2021/12/25 02:41:02;;;;;;;8.53;7.03;;;2.50;99.90;;;;;;6252906;28;20478;-63
2021/12/25 02:44:05;;;;;;;11.10;6.90;;;2.60;99.90;;;;;;6252685;28;20490;-63
2021/12/25 02:47:16;;;;;;;8.33;7.57;;;2.60;99.90;;;;;;6252821;28;20467;-63
2021/12/25 02:50:24;;;;;;;10.27;8.20;;;2.60;99.90;;;;;;6253145;28;20479;-63
2021/12/25 02:53:28;;;;;;;7.87;7.10;;;2.60;99.90;;;;;;6252775;28;20479;-63
2021/12/25 02:56:31;;;;;;;7.63;6.43;;;2.60;99.90;;;;;;6251519;28;20761;-63
2021/12/25 02:59:34;;;;;;;7.80;5.77;;;2.50;99.90;;;;;;6247532;28;20911;-63
2021/12/25 03:02:38;;;;;;;7.70;6.80;;;2.50;99.90;;;;;;6252233;28;20479;-63
2021/12/25 03:05:41;;;;;;;8.13;6.70;;;2.50;99.90;;;;;;6252351;28;20838;-63
2021/12/25 03:08:46;;;;;;;7.50;6.57;;;2.50;99.90;;;;;;6252271;28;20451;-63
2021/12/25 03:11:49;;;;;;;7.27;5.87;;;2.50;99.90;;;;;;6252482;28;20436;-63
2021/12/25 03:15:04;;;;;;;9.00;6.70;;;2.50;99.90;;;;;;6252237;28;20487;-63
2021/12/25 03:18:08;;;;;;;7.37;6.67;;;2.50;99.90;;;;;;6252709;28;20483;-63
2021/12/25 03:21:12;;;;;;;9.53;6.40;;;2.50;99.90;;;;;;6251787;28;20486;-63
2021/12/25 03:24:17;;;;;;;7.50;6.70;;;2.50;99.90;;;;;;6251932;28;20792;-63
2021/12/25 03:27:21;;;;;;;6.80;5.93;;;2.50;99.90;;;;;;6252078;28;20478;-63
2021/12/25 03:30:25;;;;;;;10.37;8.67;;;2.50;99.90;;;;;;6251814;28;20516;-63
2021/12/25 03:33:29;;;;;;;8.33;6.30;;;2.50;99.90;;;;;;6251846;28;20550;-63
2021/12/25 03:36:32;;;;;;;7.07;6.10;;;2.60;99.90;;;;;;6251700;28;20831;-64
2021/12/25 03:39:36;;;;;;;7.33;5.93;;;2.60;99.90;;;;;;6251407;28;20467;-63
2021/12/25 03:42:39;;;;;;;6.70;6.00;;;2.60;99.90;;;;;;6251684;28;20479;-63
2021/12/25 03:45:43;;;;;;;8.03;6.40;;;2.60;99.90;;;;;;6251327;28;20545;-63
2021/12/25 03:58:48;;;;;;;6.47;5.73;;;2.60;99.90;;;;;;6251259;28;20474;-63
2021/12/25 04:01:55;;;;;;;9.23;6.13;;;2.70;99.90;;;;;;6251148;28;20981;-63
2021/12/25 04:05:00;;;;;;;8.57;6.23;;;2.70;99.90;;;;;;6241934;28;20493;-63
2021/12/25 04:08:11;;;;;;;10.70;7.03;;;2.70;99.90;;;;;;6250228;28;20490;-63
2021/12/25 04:11:27;;;;;;;8.90;8.20;;;2.80;99.90;;;;;;6250984;28;20963;-63
2021/12/25 04:14:30;;;;;;;11.23;10.10;;;2.80;99.90;;;;;;6250756;28;20479;-63
2021/12/25 04:17:33;;;;;;;10.60;8.17;;;2.80;99.90;;;;;;6250111;28;20458;-63
2021/12/25 04:20:38;;;;;;;6.30;5.70;;;2.80;99.90;;;;;;6250861;28;20443;-63
2021/12/25 04:23:43;;;;;;;7.00;5.97;;;2.90;99.90;;;;;;6250105;28;20834;-63
2021/12/25 04:26:49;;;;;;;5.60;4.43;;;2.80;99.90;;;;;;6250733;28;20757;-63
2021/12/25 04:29:58;;;;;;;8.23;5.97;;;2.80;99.90;;;;;;6250905;28;20435;-63
2021/12/25 04:42:33;;;;;;;6.83;5.40;;;2.80;99.90;;;;;;6250863;28;20475;-63
2021/12/25 05:03:45;;;;;;;7.73;5.80;;;3.20;99.90;;;;;;6275078;28;20481;-63
2021/12/25 05:06:49;;;;;;;4.90;4.47;;;3.10;99.90;;;;;;6264626;28;20474;-63
2021/12/25 05:09:52;;;;;;;5.73;5.13;;;3.20;99.90;;;;;;6274939;28;20478;-63
2021/12/25 05:12:55;;;;;;;6.40;5.40;;;3.20;99.90;;;;;;6274620;28;20478;-63
2021/12/25 05:16:00;;;;;;;5.70;4.77;;;3.20;99.90;;;;;;6274942;28;20470;-63
2021/12/25 05:19:03;;;;;;;7.10;6.40;;;3.20;99.90;;;;;;6277628;28;20576;-63
2021/12/25 05:22:06;;;;;;;11.10;5.50;;;3.20;99.90;;;;;;6279647;28;20531;-63
2021/12/25 05:25:11;;;;;;;5.77;5.17;;;3.20;99.90;;;;;;6279332;28;20539;-63
2021/12/25 05:28:23;;;;;;;6.23;5.63;;;3.20;99.90;;;;;;6279650;28;20470;-63
2021/12/25 05:31:29;;;;;;;9.13;6.30;;;3.30;99.90;;;;;;6279803;28;20470;-63
2021/12/25 05:34:32;;;;;;;11.50;8.53;;;3.30;99.90;;;;;;6279615;28;20493;-63
2021/12/25 05:37:35;;;;;;;8.83;8.03;;;3.30;99.90;;;;;;6278900;28;21039;-64
2021/12/25 05:40:38;;;;;;;9.23;6.47;;;3.30;99.90;;;;;;6279347;28;20481;-63
2021/12/25 05:43:42;;;;;;;7.00;6.40;;;3.40;99.90;;;;;;6278926;28;20496;-63
2021/12/25 05:46:46;;;;;;;6.90;6.20;;;3.30;99.90;;;;;;6279782;28;20466;-63
2021/12/25 05:49:49;;;;;;;11.13;6.10;;;3.30;99.90;;;;;;6278928;28;20507;-63
2021/12/25 05:52:55;;;;;;;7.17;5.10;;;3.30;99.90;;;;;;6278705;28;20539;-63
2021/12/25 05:55:58;;;;;;;6.90;6.20;;;3.30;99.90;;;;;;6278608;28;20466;-63
2021/12/25 05:59:02;;;;;;;6.07;5.47;;;3.30;99.90;;;;;;6278450;28;20480;-63
2021/12/25 06:02:06;;;;;;;7.20;6.10;;;3.30;99.90;;;;;;6278960;28;20480;-64
2021/12/25 06:05:09;;;;;;;7.10;5.47;;;3.30;99.90;;;;;;6278614;28;20506;-64
2021/12/25 06:08:12;;;;;;;7.07;5.30;;;3.30;99.90;;;;;;6278563;28;20999;-63
2021/12/25 06:11:16;;;;;;;6.13;5.10;;;3.20;99.90;;;;;;6278443;28;20466;-63
2021/12/25 06:14:21;;;;;;;6.33;5.40;;;3.20;99.90;;;;;;6278542;28;20803;-63
2021/12/25 06:17:27;;;;;;;5.80;5.30;;;3.20;99.90;;;;;;6278618;28;20478;-63
2021/12/25 06:20:30;;;;;;;11.60;8.80;;;3.20;99.90;;;;;;6278153;28;20470;-63
2021/12/25 06:23:33;;;;;;;12.93;10.20;;;3.10;99.90;;;;;;6277753;28;20493;-63
2021/12/25 06:26:38;;;;;;;16.83;12.40;;;3.10;99.90;;;;;;6278517;28;20446;-63
2021/12/25 06:29:41;;;;;;;20.00;13.33;;;3.00;99.90;;;;;;6277845;28;20438;-63
2021/12/25 06:32:45;;;;;;;16.77;12.80;;;2.80;99.90;;;;;;6278149;28;20442;-63
2021/12/25 06:35:50;;;;;;;15.53;10.70;;;2.70;99.90;;;;;;6261253;22;20483;-63
2021/12/25 06:38:53;;;;;;;10.93;9.77;;;2.70;99.90;;;;;;6253640;28;20455;-63
2021/12/25 06:41:57;;;;;;;23.00;11.27;;;2.70;99.90;;;;;;6253057;28;20528;-63
2021/12/25 06:45:00;;;;;;;15.37;9.90;;;2.80;99.90;;;;;;6252944;28;20475;-63
2021/12/25 06:48:05;;;;;;;11.83;9.17;;;2.80;99.90;;;;;;6253588;28;20471;-63
2021/12/25 06:51:09;;;;;;;13.23;9.53;;;2.90;99.90;;;;;;6252934;28;20971;-63
2021/12/25 06:54:12;;;;;;;11.37;9.20;;;2.80;99.90;;;;;;6252295;28;20470;-63
2021/12/25 06:57:17;;;;;;;8.60;7.60;;;2.80;99.90;;;;;;6252834;28;20486;-63
2021/12/25 07:00:21;;;;;;;13.40;8.47;;;2.90;99.90;;;;;;6253011;28;20525;-63
2021/12/25 07:03:25;;;;;;;9.10;7.47;;;2.90;99.90;;;;;;6252760;28;20485;-63
2021/12/25 07:06:28;;;;;;;11.57;8.40;;;3.00;99.90;;;;;;6252814;28;20475;-63
2021/12/25 07:09:31;;;;;;;9.03;7.47;;;3.00;99.90;;;;;;6253101;28;20479;-63
2021/12/25 07:12:37;;;;;;;8.73;7.83;;;3.00;99.90;;;;;;6247930;28;20540;-63
2021/12/25 07:15:40;;;;;;;9.97;8.97;;;3.10;99.90;;;;;;6252748;28;20490;-63
2021/12/25 07:18:45;;;;;;;15.47;12.53;;;3.10;99.90;;;;;;6252517;28;20486;-63
2021/12/25 07:21:48;;;;;;;16.37;11.83;;;3.10;99.90;;;;;;6252708;28;20478;-63
2021/12/25 07:24:51;;;;;;;16.53;13.40;;;3.20;99.90;;;;;;6252016;28;20466;-63
2021/12/25 07:27:54;;;;;;;17.10;13.83;;;3.30;99.90;;;;;;6252470;28;20479;-63
2021/12/25 07:31:00;;;;;;;20.90;14.47;;;3.30;99.90;;;;;;6252450;28;20982;-63
2021/12/25 07:34:05;;;;;;;16.63;12.67;;;3.40;99.90;;;;;;6251891;28;20486;-63
2021/12/25 07:37:08;;;;;;;16.80;13.40;;;3.30;99.90;;;;;;6252198;28;20482;-63
2021/12/25 07:40:12;;;;;;;18.90;14.03;;;3.30;99.90;;;;;;6251746;28;20966;-63
2021/12/25 07:43:17;;;;;;;15.43;13.40;;;3.40;99.90;;;;;;6251059;28;20553;-64
2021/12/25 07:46:22;;;;;;;18.00;13.87;;;3.60;99.90;;;;;;6251456;28;20462;-63
2021/12/25 07:49:27;;;;;;;14.00;11.33;;;3.80;99.90;;;;;;6252244;28;20467;-63
2021/12/25 07:52:31;;;;;;;17.80;12.63;;;3.90;99.90;;;;;;6251549;28;20475;-63
2021/12/25 07:55:34;;;;;;;15.00;12.20;;;4.10;99.80;;;;;;6250988;28;20808;-64
2021/12/25 07:58:39;;;;;;;15.37;11.70;;;4.20;99.50;;;;;;6251561;28;20466;-64
2021/12/25 08:01:42;;;;;;;16.80;12.03;;;4.30;99.20;;;;;;6251410;28;20478;-63
2021/12/25 08:04:47;;;;;;;15.67;13.13;;;4.50;99.00;;;;;;6250872;28;20479;-63
2021/12/25 08:07:50;;;;;;;17.70;13.10;;;4.60;98.80;;;;;;6251102;28;20804;-63
2021/12/25 08:10:55;;;;;;;15.83;12.10;;;4.70;98.50;;;;;;6250649;28;20994;-63
2021/12/25 08:13:59;;;;;;;17.00;12.23;;;4.80;98.20;;;;;;6250905;28;20479;-63
2021/12/25 08:17:04;;;;;;;16.50;12.10;;;4.90;98.10;;;;;;6236888;28;20490;-63
2021/12/25 08:20:10;;;;;;;14.73;11.50;;;4.90;98.10;;;;;;6250829;28;20482;-63
2021/12/25 08:23:13;;;;;;;12.80;10.90;;;4.70;98.20;;;;;;6250958;28;20537;-63
2021/12/25 08:26:16;;;;;;;12.53;10.57;;;4.70;98.60;;;;;;6250547;28;20966;-63
2021/12/25 08:29:20;;;;;;;14.90;12.93;;;4.80;98.40;;;;;;6250977;28;20471;-63
2021/12/25 08:32:23;;;;;;;16.73;11.90;;;4.90;98.30;;;;;;6250078;28;20471;-63
2021/12/25 08:35:29;;;;;;;18.27;13.33;;;4.90;98.20;;;;;;6250411;28;20489;-63
2021/12/25 08:38:33;;;;;;;16.40;12.93;;;5.00;98.20;;;;;;6250120;28;21002;-64
2021/12/25 08:41:38;;;;;;;18.53;12.67;;;5.10;98.10;;;;;;6250004;28;20838;-63
2021/12/25 08:44:52;;;;;;;18.83;11.27;;;5.10;98.00;;;;;;6249982;28;20491;-63
2021/12/25 08:47:58;;;;;;;16.77;12.40;;;5.10;97.90;;;;;;6250347;28;20847;-64
2021/12/25 08:51:03;;;;;;;15.40;11.50;;;5.30;98.00;;;;;;6249708;28;20474;-63
2021/12/25 08:54:06;;;;;;;14.13;12.33;;;5.40;97.90;;;;;;6249563;28;20475;-63
2021/12/25 08:57:11;;;;;;;17.50;12.07;;;5.50;97.70;;;;;;6250363;28;20483;-64
2021/12/25 09:00:15;;;;;;;12.73;10.93;;;5.70;97.30;;;;;;6250241;28;20470;-63
2021/12/25 09:03:18;;;;;;;12.53;10.43;;;5.80;97.10;;;;;;6249562;28;20766;-64
2021/12/25 09:06:23;;;;;;;12.70;10.80;;;5.90;97.30;;;;;;6250204;28;20862;-63
2021/12/25 09:09:26;;;;;;;14.20;9.80;;;6.10;97.20;;;;;;6250512;28;20467;-63
2021/12/25 09:12:32;;;;;;;11.13;9.97;;;6.20;97.00;;;;;;6250568;28;20471;-64
2021/12/25 09:15:35;;;;;;;13.83;11.87;;;6.40;96.70;;;;;;6250244;28;20486;-63
2021/12/25 09:18:38;;;;;;;12.50;10.57;;;6.50;96.70;;;;;;6250091;28;20466;-63
2021/12/25 09:21:43;;;;;;;13.73;10.30;;;6.70;96.40;;;;;;6249923;28;20475;-63
2021/12/25 09:24:46;;;;;;;12.40;9.93;;;7.00;95.80;;;;;;6249837;28;20475;-64
2021/12/25 09:27:49;;;;;;;11.13;10.03;;;7.10;95.70;;;;;;6250014;28;20474;-64
2021/12/25 09:30:52;;;;;;;11.07;9.80;;;7.20;95.20;;;;;;6249715;28;20498;-64
2021/12/25 09:33:56;;;;;;;11.13;9.70;;;7.30;95.30;;;;;;6249988;28;20482;-64
2021/12/25 09:37:00;;;;;;;10.37;8.87;;;7.50;95.10;;;;;;6250232;28;20537;-63
2021/12/25 09:40:06;;;;;;;11.23;10.10;;;7.70;95.10;;;;;;6250083;28;20475;-64
2021/12/25 09:43:09;;;;;;;11.70;9.73;;;7.90;95.00;;;;;;6249470;28;20471;-63
2021/12/25 09:46:12;;;;;;;10.07;8.93;;;8.00;94.40;;;;;;6249610;28;20560;-63
2021/12/25 09:49:16;;;;;;;13.07;9.50;;;8.20;94.30;;;;;;6249712;28;20485;-64
2021/12/25 09:52:21;;;;;;;10.60;8.93;;;8.20;94.20;;;;;;6249885;28;20989;-63
2021/12/25 09:55:24;;;;;;;12.60;8.43;;;8.30;94.20;;;;;;6249117;28;20902;-64
2021/12/25 09:58:27;;;;;;;8.93;8.10;;;8.50;94.10;;;;;;6249987;28;20474;-64
2021/12/25 10:01:38;;;;;;;13.80;11.93;;;8.70;93.80;;;;;;6249440;28;20812;-64
2021/12/25 10:04:45;;;;;;;11.90;9.83;;;8.80;93.60;;;;;;6249340;28;20593;-64
2021/12/25 10:08:00;;;;;;;11.20;8.33;;;9.00;93.30;;;;;;6253847;28;20485;-64
2021/12/25 10:11:04;;;;;;;11.17;7.93;;;9.20;92.90;;;;;;6254037;28;20460;-63
2021/12/25 10:14:07;;;;;;;11.40;7.60;;;9.50;92.50;;;;;;6254116;28;20817;-63
2021/12/25 10:17:16;;;;;;;11.13;8.17;;;9.70;92.20;;;;;;6253958;28;20525;-63
2021/12/25 10:20:21;;;;;;;9.83;8.40;;;9.90;91.30;;;;;;6253898;28;20475;-63
2021/12/25 10:23:29;;;;;;;10.40;9.23;;;10.10;90.60;;;;;;6253073;28;20483;-63
2021/12/25 10:26:33;;;;;;;11.27;7.90;;;10.40;90.20;;;;;;6228871;28;21006;-63
2021/12/25 10:29:37;;;;;;;9.30;8.20;;;10.60;89.30;;;;;;6228994;28;20448;-63
2021/12/25 10:32:40;;;;;;;11.07;9.23;;;10.90;87.00;;;;;;6229165;28;20918;-63
2021/12/25 10:35:43;;;;;;;11.13;10.00;;;11.00;85.90;;;;;;6227973;28;20472;-63
2021/12/25 10:39:00;;;;;;;17.30;12.83;;;11.20;84.10;;;;;;6228885;28;20458;-63
2021/12/25 10:42:10;;;;;;;15.67;13.97;;;11.20;82.70;;;;;;6228860;28;20480;-63
2021/12/25 10:45:15;;;;;;;16.90;14.40;;;11.20;82.40;;;;;;6228809;28;20483;-64
2021/12/25 10:48:27;;;;;;;26.20;16.50;;;11.00;82.50;;;;;;6228956;28;20501;-64
2021/12/25 10:51:32;;;;;;;22.67;17.10;;;10.80;82.90;;;;;;6228269;28;20864;-64
2021/12/25 10:54:40;;;;;;;18.97;17.17;;;10.90;82.20;;;;;;6227911;28;20491;-64
2021/12/25 10:57:47;;;;;;;22.20;18.97;;;11.00;81.50;;;;;;6228391;28;20487;-63
2021/12/25 11:00:54;;;;;;;23.70;19.73;;;10.90;81.50;;;;;;6228828;28;20533;-63
2021/12/25 11:03:57;;;;;;;23.43;19.00;;;10.50;82.70;;;;;;6228355;28;20490;-63
2021/12/25 11:07:12;;;;;;;21.47;16.73;;;10.30;82.70;;;;;;6228175;28;20964;-63
2021/12/25 11:10:19;;;;;;;23.03;16.50;;;10.40;82.30;;;;;;6236656;28;20509;-63
2021/12/25 11:13:25;;;;;;;21.20;15.67;;;10.60;81.40;;;;;;6252131;28;20486;-63
2021/12/25 11:16:32;;;;;;;21.30;15.00;;;10.80;80.50;;;;;;6251979;28;20849;-63
2021/12/25 11:19:48;;;;;;;16.53;13.87;;;11.00;79.10;;;;;;6252272;28;20471;-63
2021/12/25 11:22:54;;;;;;;23.10;16.80;;;11.10;78.90;;;;;;6251882;28;20509;-63
2021/12/25 11:25:58;;;;;;;20.40;15.80;;;11.30;78.00;;;;;;6242481;28;20925;-63
2021/12/25 11:29:03;;;;;;;22.17;15.40;;;11.30;77.30;;;;;;6253532;28;20479;-64
2021/12/25 11:32:08;;;;;;;19.07;15.17;;;11.50;77.90;;;;;;6252740;28;20479;-64
2021/12/25 11:35:13;;;;;;;21.23;16.67;;;11.80;77.40;;;;;;6253525;28;20471;-64
2021/12/25 11:38:16;;;;;;;17.87;13.70;;;12.30;76.80;;;;;;6254214;28;20963;-63
2021/12/25 11:41:26;;;;;;;21.83;14.30;;;12.80;74.10;;;;;;6252963;28;20479;-63
2021/12/25 11:44:30;;;;;;;17.93;13.10;;;12.90;72.80;;;;;;6250757;28;20479;-63
2021/12/25 11:47:37;;;;;;;20.77;14.90;;;13.00;72.30;;;;;;6251301;28;20483;-63
2021/12/25 11:50:45;;;;;;;20.50;13.93;;;13.00;71.00;;;;;;6250986;28;20466;-63
2021/12/25 11:54:06;;;;;;;20.30;14.57;;;13.00;70.50;;;;;;6251624;28;20463;-63
2021/12/25 11:57:34;;;;;;;24.70;15.73;;;12.90;71.10;;;;;;6250638;28;20475;-63
2021/12/25 12:00:38;;;;;;;24.33;15.27;;;12.80;71.20;;;;;;6250515;28;20459;-63
2021/12/25 12:03:44;;;;;;;17.57;15.63;;;12.60;71.50;;;;;;6250593;28;21030;-63
2021/12/25 12:07:04;;;;;;;21.60;14.63;;;12.50;71.90;;;;;;6250935;28;20478;-63
2021/12/25 12:10:07;;;;;;;18.97;14.10;;;12.50;72.60;;;;;;6251487;28;20471;-63
2021/12/25 12:13:20;;;;;;;18.93;15.80;;;12.60;72.50;;;;;;6251424;28;20471;-64
2021/12/25 12:16:38;;;;;;;21.30;14.17;;;13.00;72.20;;;;;;6254097;28;20463;-63
2021/12/25 12:19:43;;;;;;;24.80;17.27;;;13.40;71.00;;;;;;6251242;28;20847;-63
2021/12/25 12:23:18;;;;;;;20.40;14.63;;;13.50;69.30;;;;;;6251240;28;20478;-64
2021/12/25 12:26:51;;;;;;;16.53;13.70;;;13.40;68.70;;;;;;6250240;28;20533;-64
2021/12/25 12:29:57;;;;;;;21.63;15.47;;;13.50;68.70;;;;;;6205940;28;20459;-64
2021/12/25 12:33:02;;;;;;;19.10;14.57;;;13.70;68.10;;;;;;6250429;28;20471;-64
2021/12/25 12:36:27;;;;;;;21.73;15.60;;;14.00;67.90;;;;;;6250548;28;20471;-63
2021/12/25 12:39:30;;;;;;;17.47;14.23;;;14.10;66.40;;;;;;6250221;28;20463;-63
2021/12/25 12:42:50;;;;;;;15.73;12.53;;;14.30;66.00;;;;;;6250462;28;20482;-64
2021/12/25 12:45:55;;;;;;;18.57;13.40;;;14.40;64.80;;;;;;6250270;28;20503;-64
2021/12/25 12:49:04;;;;;;;17.63;13.73;;;14.50;64.10;;;;;;6250572;28;20467;-63
2021/12/25 12:52:25;;;;;;;15.47;13.10;;;14.60;63.80;;;;;;6250755;28;20471;-63
2021/12/25 12:55:30;;;;;;;23.60;14.23;;;14.90;63.50;;;;;;6249951;28;20471;-63
2021/12/25 12:58:33;;;;;;;18.50;13.77;;;14.90;61.70;;;;;;6250779;28;20500;-64
2021/12/25 13:01:37;;;;;;;21.30;14.30;;;14.70;62.20;;;;;;6250406;28;20473;-64
2021/12/25 13:04:45;;;;;;;20.33;13.83;;;15.10;61.80;;;;;;6252110;28;20471;-64
2021/12/25 13:07:50;;;;;;;24.53;13.80;;;15.40;59.80;;;;;;6250452;28;20491;-64
2021/12/25 13:11:03;;;;;;;22.33;16.17;;;15.20;59.50;;;;;;6249907;28;20474;-64
2021/12/25 13:14:08;;;;;;;20.70;13.87;;;14.90;59.60;;;;;;6250199;28;20487;-64
2021/12/25 13:17:14;;;;;;;20.33;15.40;;;14.80;60.40;;;;;;6250212;28;20471;-64
2021/12/25 13:20:18;;;;;;;24.73;15.47;;;14.90;60.50;;;;;;6250173;28;20505;-64
2021/12/25 13:23:23;;;;;;;25.80;14.63;;;15.30;59.80;;;;;;6250391;28;20974;-64
2021/12/25 13:26:33;;;;;;;19.50;14.53;;;15.80;58.40;;;;;;6249317;28;20471;-64
2021/12/25 13:29:37;;;;;;;21.43;15.17;;;15.80;57.80;;;;;;6249596;28;20467;-64
2021/12/25 13:32:42;;;;;;;22.90;15.50;;;15.50;58.20;;;;;;6250675;28;20465;-64
2021/12/25 13:35:45;;;;;;;25.13;15.57;;;15.30;58.70;;;;;;6249567;28;20487;-64
2021/12/25 13:38:53;;;;;;;23.37;14.73;;;15.80;58.90;;;;;;6250460;28;20442;-63
2021/12/25 13:41:58;;;;;;;23.10;14.93;;;16.40;56.60;;;;;;6254597;28;20525;-63
2021/12/25 13:45:02;;;;;;;22.87;14.47;;;16.70;56.00;;;;;;6254395;28;20528;-63
2021/12/25 13:48:07;;;;;;;18.73;14.80;;;16.80;55.00;;;;;;6257099;28;20891;-63
2021/12/25 13:51:10;;;;;;;20.43;14.37;;;16.60;54.80;;;;;;6255362;28;20474;-64
2021/12/25 13:54:18;;;;;;;16.73;13.87;;;16.40;55.30;;;;;;6254431;28;20479;-64
2021/12/25 13:57:21;;;;;;;19.93;14.03;;;16.00;55.30;;;;;;6254129;28;20762;-64
2021/12/25 14:00:27;;;;;;;22.70;14.77;;;15.60;56.00;;;;;;6253301;28;20814;-64
2021/12/25 14:03:31;;;;;;;19.03;15.00;;;15.10;57.00;;;;;;6253813;28;20478;-64
2021/12/25 14:06:36;;;;;;;22.10;14.00;;;14.60;58.20;;;;;;6254210;28;20497;-64
2021/12/25 14:09:39;;;;;;;18.80;15.17;;;14.10;59.10;;;;;;6253124;28;20475;-63
2021/12/25 14:12:47;;;;;;;16.83;14.80;;;13.60;60.00;;;;;;6253515;28;20540;-63
2021/12/25 14:15:54;;;;;;;20.67;16.07;;;13.30;61.40;;;;;;6253715;28;20795;-64
2021/12/25 14:18:58;;;;;;;22.33;16.53;;;13.00;62.90;;;;;;6253880;28;20477;-64
2021/12/25 14:22:04;;;;;;;24.03;16.70;;;12.70;64.10;;;;;;6254591;28;20478;-63
2021/12/25 14:25:10;;;;;;;27.10;17.57;;;12.40;64.90;;;;;;6254096;28;20486;-63
2021/12/25 14:28:17;;;;;;;26.33;16.10;;;12.20;66.10;;;;;;6254250;28;20474;-63
2021/12/25 14:31:21;;;;;;;17.90;14.27;;;11.90;67.10;;;;;;6253685;28;20475;-63
2021/12/25 14:34:31;;;;;;;24.73;17.67;;;11.60;69.20;;;;;;6239302;28;20494;-63
2021/12/25 14:37:37;;;;;;;16.10;14.47;;;11.40;69.40;;;;;;6253532;28;20467;-63
2021/12/25 14:40:46;;;;;;;24.50;16.00;;;11.10;70.30;;;;;;6253653;28;20478;-63
2021/12/25 14:43:49;;;;;;;28.33;17.10;;;10.90;71.40;;;;;;6253313;28;20509;-63
2021/12/25 14:47:07;;;;;;;31.33;17.37;;;10.60;72.40;;;;;;6252583;28;20487;-63
2021/12/25 14:50:16;;;;;;;24.57;17.67;;;10.40;73.80;;;;;;6252445;28;20471;-63
2021/12/25 14:53:19;;;;;;;26.43;16.57;;;10.20;74.70;;;;;;6252549;28;20471;-63
2021/12/25 14:56:25;;;;;;;25.57;16.00;;;9.90;77.00;;;;;;6252891;28;20475;-63
2021/12/25 14:59:30;;;;;;;25.47;16.23;;;9.80;78.00;;;;;;6252887;28;20472;-63
2021/12/25 15:02:33;;;;;;;32.80;16.73;;;9.60;79.00;;;;;;6252716;28;20798;-63
2021/12/25 15:05:39;;;;;;;24.40;16.60;;;9.40;79.90;;;;;;6277406;28;20884;-63
2021/12/25 15:08:42;;;;;;;24.00;16.70;;;9.30;80.80;;;;;;6278936;28;20462;-64
2021/12/25 15:11:48;;;;;;;29.20;18.40;;;9.10;82.00;;;;;;6277652;28;20442;-63
2021/12/25 15:14:54;;;;;;;34.73;18.93;;;9.00;83.10;;;;;;6278304;28;20473;-63
2021/12/25 15:17:57;;;;;;;19.60;17.20;;;8.80;84.60;;;;;;6277449;28;20953;-63
2021/12/25 15:21:18;;;;;;;24.43;17.97;;;8.70;86.10;;;;;;6277726;28;20466;-63
2021/12/25 15:24:24;;;;;;;28.67;18.40;;;8.60;86.90;;;;;;6277175;28;20485;-63
2021/12/25 15:27:30;;;;;;;22.30;16.50;;;8.50;87.50;;;;;;6276723;28;20806;-63
2021/12/25 15:30:37;;;;;;;24.13;16.13;;;8.40;88.20;;;;;;6276607;28;20902;-63
2021/12/25 15:33:45;;;;;;;25.23;16.07;;;8.30;89.00;;;;;;6276339;28;20851;-63
2021/12/25 15:36:51;;;;;;;23.40;14.90;;;8.20;90.00;;;;;;6267152;28;20478;-63
2021/12/25 15:39:56;;;;;;;19.63;14.20;;;8.10;90.40;;;;;;6276194;28;20524;-64
2021/12/25 15:42:59;;;;;;;20.67;13.93;;;8.00;90.60;;;;;;6276278;28;20478;-63
2021/12/25 15:46:03;;;;;;;16.27;13.70;;;7.90;90.90;;;;;;6276578;28;20488;-63
2021/12/25 15:49:07;;;;;;;24.33;14.53;;;7.80;91.50;;;;;;6276128;28;20477;-63
2021/12/25 15:52:12;;;;;;;14.90;11.50;;;7.70;91.70;;;;;;6275730;28;21091;-63
2021/12/25 15:55:16;;;;;;;12.00;10.90;;;7.70;92.30;;;;;;6275149;28;20478;-64
2021/12/25 15:58:21;;;;;;;17.57;11.77;;;7.60;92.70;;;;;;6275670;28;20462;-63
2021/12/25 16:01:24;;;;;;;18.07;12.00;;;7.60;93.20;;;;;;6276719;28;20477;-63
2021/12/25 16:04:28;;;;;;;15.03;11.23;;;7.50;93.30;;;;;;6274870;28;20500;-63
2021/12/25 16:07:32;;;;;;;15.97;10.80;;;7.40;93.80;;;;;;6276111;28;20478;-63
2021/12/25 16:10:37;;;;;;;17.90;11.80;;;7.30;94.10;;;;;;6275775;28;20477;-63
2021/12/25 16:13:40;;;;;;;16.57;11.43;;;7.20;94.40;;;;;;6275369;28;20648;-63
2021/12/25 16:16:43;;;;;;;20.93;11.80;;;7.20;94.80;;;;;;6275710;28;20488;-63
2021/12/25 16:19:46;;;;;;;15.03;11.70;;;7.10;94.90;;;;;;6275536;28;20473;-63
2021/12/25 16:22:51;;;;;;;13.33;11.97;;;7.00;95.10;;;;;;6275580;28;20474;-63
2021/12/25 16:25:54;;;;;;;14.73;11.00;;;7.00;95.30;;;;;;6272618;28;20478;-63
2021/12/25 16:28:58;;;;;;;15.70;11.23;;;7.00;95.50;;;;;;6250305;28;20989;-63
2021/12/25 16:32:01;;;;;;;16.67;11.83;;;7.00;95.70;;;;;;6250643;28;20478;-63
2021/12/25 16:35:06;;;;;;;16.40;11.93;;;6.90;95.80;;;;;;6250461;28;20574;-63
2021/12/25 16:38:11;;;;;;;15.37;12.37;;;6.90;96.00;;;;;;6250370;28;20467;-63
2021/12/25 16:41:15;;;;;;;15.33;11.90;;;6.90;96.10;;;;;;6250300;28;20483;-63
2021/12/25 16:44:21;;;;;;;13.77;12.23;;;6.90;96.20;;;;;;6250711;28;20608;-63
2021/12/25 16:47:24;;;;;;;14.37;12.23;;;6.80;96.20;;;;;;6249837;28;20942;-63
2021/12/25 16:50:28;;;;;;;20.97;13.57;;;6.70;96.30;;;;;;6249596;28;20486;-63
2021/12/25 16:53:32;;;;;;;17.60;13.13;;;6.70;96.60;;;;;;6249972;28;20498;-63